Time;durP1;ratioP1;P1;durP2;ratioP2;P2;SDS_P1;SDS_P2;PMS_P1;PMS_P2;Temp;Humidity;BMP_temperature;BMP_pressure;BME280_temperature;BME280_humidity;BME280_pressure;Samples;Min_cycle;Max_cycle;Signal;HPM_P1;HPM_P2
2022/07/08 00:00:33;;;;;;;6.38;1.42;;;14.20;99.90;;;;;;5088071;28;20047;-67
2022/07/08 00:02:59;;;;;;;7.22;1.40;;;14.20;99.90;;;;;;5092848;28;20575;-66
2022/07/08 00:05:24;;;;;;;7.57;1.30;;;14.20;99.90;;;;;;5090106;28;20040;-66
2022/07/08 00:07:50;;;;;;;9.77;1.40;;;14.20;99.90;;;;;;5087496;28;20391;-67
2022/07/08 00:10:16;;;;;;;4.63;1.10;;;14.20;99.90;;;;;;5120019;27;20063;-67
2022/07/08 00:12:41;;;;;;;8.95;1.90;;;14.20;99.90;;;;;;5089036;28;20035;-66
2022/07/08 00:15:09;;;;;;;7.13;1.50;;;14.20;99.90;;;;;;5088922;28;20471;-66
2022/07/08 00:17:35;;;;;;;5.72;1.13;;;14.20;99.90;;;;;;5088815;28;20071;-66
2022/07/08 00:20:01;;;;;;;4.53;1.38;;;14.20;99.90;;;;;;5091916;28;20807;-66
2022/07/08 00:22:26;;;;;;;4.90;1.40;;;14.20;99.90;;;;;;5087643;28;20047;-66
2022/07/08 00:24:52;;;;;;;5.25;1.20;;;14.20;99.90;;;;;;5089701;28;20418;-66
2022/07/08 00:27:18;;;;;;;8.13;1.10;;;14.10;99.90;;;;;;5088921;28;20569;-66
2022/07/08 00:29:44;;;;;;;5.13;1.33;;;14.10;99.90;;;;;;5088688;28;20059;-66
2022/07/08 00:32:10;;;;;;;6.78;1.08;;;14.10;99.90;;;;;;5070462;28;20059;-66
2022/07/08 00:34:35;;;;;;;6.50;1.20;;;14.10;99.90;;;;;;5089069;28;20129;-66
2022/07/08 00:37:02;;;;;;;6.57;1.40;;;14.10;99.90;;;;;;5088494;28;20052;-66
2022/07/08 00:39:28;;;;;;;7.60;1.20;;;14.10;99.90;;;;;;5092996;28;20546;-66
2022/07/08 00:41:54;;;;;;;8.65;1.85;;;14.10;99.90;;;;;;5088345;28;20032;-66
2022/07/08 00:44:19;;;;;;;6.63;1.00;;;14.00;99.90;;;;;;5086270;28;20043;-67
2022/07/08 00:46:45;;;;;;;7.80;1.52;;;14.10;99.90;;;;;;5091103;28;20086;-66
2022/07/08 00:49:11;;;;;;;6.32;1.30;;;14.10;99.90;;;;;;5087788;28;20043;-66
2022/07/08 00:51:37;;;;;;;6.05;1.08;;;14.00;99.90;;;;;;5121705;28;20170;-66
2022/07/08 00:54:03;;;;;;;7.32;1.40;;;14.00;99.90;;;;;;5091236;28;20078;-66
2022/07/08 00:56:29;;;;;;;9.27;1.42;;;14.00;99.90;;;;;;5088724;28;20044;-66
2022/07/08 00:58:55;;;;;;;11.10;1.30;;;14.10;99.90;;;;;;5088457;28;20082;-66
2022/07/08 01:01:21;;;;;;;8.23;1.92;;;14.00;99.90;;;;;;5091004;28;20507;-66
2022/07/08 01:03:48;;;;;;;5.38;1.23;;;14.00;99.90;;;;;;5089549;28;20091;-67
2022/07/08 01:06:14;;;;;;;8.85;1.60;;;14.00;99.90;;;;;;5089981;28;20047;-66
2022/07/08 01:08:40;;;;;;;6.45;1.10;;;14.00;99.90;;;;;;5092100;28;20398;-66
2022/07/08 01:11:08;;;;;;;4.55;1.20;;;14.00;99.90;;;;;;5092796;28;20214;-66
2022/07/08 01:13:34;;;;;;;7.93;1.30;;;14.00;99.90;;;;;;5094822;28;20032;-67
2022/07/08 01:16:00;;;;;;;5.38;1.25;;;14.00;99.90;;;;;;5092435;28;20130;-66
2022/07/08 01:18:28;;;;;;;8.07;1.85;;;14.00;99.90;;;;;;5092131;28;20115;-66
2022/07/08 01:20:55;;;;;;;4.63;1.40;;;14.00;99.90;;;;;;5092306;28;20475;-66
2022/07/08 01:23:20;;;;;;;7.35;1.40;;;13.90;99.90;;;;;;5091172;28;20036;-66
2022/07/08 01:25:47;;;;;;;7.75;1.80;;;13.90;99.90;;;;;;5093254;28;20048;-66
2022/07/08 01:28:13;;;;;;;4.93;1.20;;;13.80;99.90;;;;;;5095349;28;20063;-67
2022/07/08 01:30:39;;;;;;;8.15;1.55;;;13.90;99.90;;;;;;5094488;28;20085;-67
2022/07/08 01:33:05;;;;;;;6.38;1.45;;;13.80;99.90;;;;;;5076831;28;20044;-66
2022/07/08 01:35:31;;;;;;;6.40;1.20;;;13.80;99.90;;;;;;5095823;28;20032;-66
2022/07/08 01:37:56;;;;;;;8.30;1.42;;;13.80;99.90;;;;;;5090820;28;20043;-67
2022/07/08 01:40:22;;;;;;;7.18;1.55;;;13.70;99.90;;;;;;5090242;28;20043;-66
2022/07/08 01:42:48;;;;;;;7.72;1.85;;;13.70;99.90;;;;;;5092831;28;20389;-66
2022/07/08 01:45:13;;;;;;;9.77;1.52;;;13.70;99.90;;;;;;5095518;28;20032;-66
2022/07/08 01:47:39;;;;;;;6.20;1.20;;;13.60;99.90;;;;;;5091538;28;20089;-67
2022/07/08 01:50:05;;;;;;;4.65;1.33;;;13.60;99.90;;;;;;5090086;28;20075;-66
2022/07/08 01:52:31;;;;;;;6.25;1.17;;;13.60;99.90;;;;;;5089981;28;20466;-66
2022/07/08 01:54:56;;;;;;;7.47;1.00;;;13.60;99.90;;;;;;5093529;28;20044;-66
2022/07/08 01:57:22;;;;;;;7.93;1.38;;;13.50;99.90;;;;;;5122562;27;20128;-66
2022/07/08 01:59:49;;;;;;;7.80;1.30;;;13.50;99.90;;;;;;5090674;28;20048;-66
2022/07/08 02:02:18;;;;;;;6.57;1.67;;;13.50;99.90;;;;;;5089403;28;20046;-66
2022/07/08 02:04:44;;;;;;;7.18;1.70;;;13.40;99.90;;;;;;5091046;28;20048;-66
2022/07/08 02:07:10;;;;;;;6.10;1.70;;;13.40;99.90;;;;;;5125282;27;20071;-66
2022/07/08 02:09:37;;;;;;;4.50;1.15;;;13.40;99.90;;;;;;5089885;28;20046;-66
2022/07/08 02:12:19;;;;;;;4.28;1.00;;;13.40;99.90;;;;;;5075908;28;20052;-66
2022/07/08 02:14:45;;;;;;;8.47;1.30;;;13.40;99.90;;;;;;5090365;28;20535;-66
2022/07/08 02:17:11;;;;;;;6.30;1.08;;;13.40;99.90;;;;;;5082822;28;20282;-66
2022/07/08 02:19:36;;;;;;;10.82;1.33;;;13.40;99.90;;;;;;5091577;28;20050;-66
2022/07/08 02:22:03;;;;;;;5.53;1.00;;;13.40;99.90;;;;;;5088804;28;20043;-66
2022/07/08 02:24:28;;;;;;;5.45;1.25;;;13.30;99.90;;;;;;5094908;28;20135;-66
2022/07/08 02:26:54;;;;;;;4.93;1.10;;;13.30;99.90;;;;;;5089418;28;20131;-66
2022/07/08 02:29:19;;;;;;;4.68;1.08;;;13.30;99.90;;;;;;5090928;28;20079;-66
2022/07/08 02:31:45;;;;;;;5.55;1.10;;;13.30;99.90;;;;;;5089264;28;20111;-66
2022/07/08 02:34:11;;;;;;;4.30;1.20;;;13.20;99.90;;;;;;5123369;27;20039;-66
2022/07/08 02:36:36;;;;;;;5.05;1.05;;;13.20;99.90;;;;;;5091790;28;20133;-66
2022/07/08 02:39:03;;;;;;;4.43;0.85;;;13.20;99.90;;;;;;5074429;28;20103;-67
2022/07/08 02:41:29;;;;;;;5.88;1.40;;;13.20;99.90;;;;;;5089633;28;20044;-66
2022/07/08 02:43:55;;;;;;;7.25;1.20;;;13.10;99.90;;;;;;5089227;28;20138;-66
2022/07/08 02:46:21;;;;;;;4.78;1.10;;;13.10;99.90;;;;;;5094616;28;20146;-66
2022/07/08 02:48:46;;;;;;;6.68;1.33;;;13.00;99.90;;;;;;5122421;27;20036;-66
2022/07/08 02:51:12;;;;;;;5.07;1.40;;;13.00;99.90;;;;;;5089660;28;20076;-66
2022/07/08 02:53:37;;;;;;;6.10;1.40;;;12.90;99.90;;;;;;5091541;28;20453;-66
2022/07/08 02:56:03;;;;;;;8.02;1.58;;;12.90;99.90;;;;;;5097042;28;20032;-66
2022/07/08 02:58:29;;;;;;;8.02;1.45;;;12.80;99.90;;;;;;5089411;28;20368;-66
2022/07/08 03:00:54;;;;;;;4.97;1.45;;;12.80;99.90;;;;;;5090941;28;20035;-66
2022/07/08 03:03:20;;;;;;;5.97;0.98;;;12.80;99.90;;;;;;5090311;28;20044;-66
2022/07/08 03:05:46;;;;;;;3.28;0.90;;;12.70;99.90;;;;;;5090347;28;20067;-66
2022/07/08 03:08:11;;;;;;;5.07;1.00;;;12.70;99.90;;;;;;5092202;28;20058;-67
2022/07/08 03:10:37;;;;;;;4.32;1.00;;;12.60;99.90;;;;;;5090229;28;20035;-68
2022/07/08 03:13:03;;;;;;;8.13;1.50;;;12.60;99.90;;;;;;5089934;28;20123;-66
2022/07/08 03:15:28;;;;;;;8.32;1.75;;;12.50;99.90;;;;;;5089293;28;20035;-66
2022/07/08 03:17:54;;;;;;;5.00;1.25;;;12.50;99.90;;;;;;5087362;28;20059;-66
2022/07/08 03:20:20;;;;;;;5.15;0.85;;;12.50;99.90;;;;;;5093112;28;20048;-66
2022/07/08 03:22:46;;;;;;;8.13;1.50;;;12.50;99.90;;;;;;5089847;28;20044;-66
2022/07/08 03:25:11;;;;;;;4.55;1.60;;;12.50;99.90;;;;;;5119605;27;20051;-66
2022/07/08 03:27:37;;;;;;;4.13;1.25;;;12.40;99.90;;;;;;5089303;28;20044;-66
2022/07/08 03:30:04;;;;;;;5.57;1.60;;;12.40;99.90;;;;;;5087714;28;20060;-66
2022/07/08 03:32:30;;;;;;;7.63;1.10;;;12.40;99.90;;;;;;5088755;28;20075;-66
2022/07/08 03:34:56;;;;;;;7.80;1.50;;;12.40;99.90;;;;;;5090142;28;20067;-66
2022/07/08 03:37:22;;;;;;;4.65;1.45;;;12.40;99.90;;;;;;5090604;28;20032;-66
2022/07/08 03:39:50;;;;;;;6.88;1.67;;;12.40;99.90;;;;;;5088104;28;20051;-66
2022/07/08 03:42:17;;;;;;;4.68;1.10;;;12.40;99.90;;;;;;5075110;28;20097;-66
2022/07/08 03:44:42;;;;;;;4.07;1.10;;;12.40;99.90;;;;;;5089202;28;20437;-66
2022/07/08 03:47:08;;;;;;;6.82;1.52;;;12.50;99.90;;;;;;5086543;28;20056;-66
2022/07/08 03:49:34;;;;;;;6.28;1.30;;;12.50;99.90;;;;;;5090480;28;20110;-66
2022/07/08 03:52:00;;;;;;;5.10;1.48;;;12.50;99.90;;;;;;5087836;28;20064;-66
2022/07/08 03:54:25;;;;;;;5.32;1.20;;;12.50;99.90;;;;;;5090911;28;20383;-66
2022/07/08 03:56:52;;;;;;;6.28;1.23;;;12.50;99.90;;;;;;5086913;28;20393;-66
2022/07/08 03:59:18;;;;;;;5.28;1.27;;;12.50;99.90;;;;;;5088932;28;20481;-67
2022/07/08 04:01:44;;;;;;;5.30;1.02;;;12.50;99.90;;;;;;5093636;28;20119;-66
2022/07/08 04:04:10;;;;;;;8.95;1.30;;;12.50;99.90;;;;;;5090307;28;20063;-66
2022/07/08 04:06:36;;;;;;;7.47;1.25;;;12.50;99.90;;;;;;5090154;28;20044;-66
2022/07/08 04:09:03;;;;;;;6.30;1.33;;;12.60;99.90;;;;;;5072592;28;20036;-66
2022/07/08 04:11:28;;;;;;;7.90;1.30;;;12.60;99.90;;;;;;5089317;28;20039;-66
2022/07/08 04:13:54;;;;;;;5.72;1.20;;;12.60;99.90;;;;;;5088598;28;20040;-66
2022/07/08 04:16:20;;;;;;;8.25;1.38;;;12.60;99.90;;;;;;5114797;28;20063;-66
2022/07/08 04:18:46;;;;;;;6.95;1.40;;;12.70;99.90;;;;;;5091629;28;20490;-66
2022/07/08 04:21:11;;;;;;;7.28;1.27;;;12.70;99.90;;;;;;5088834;28;20116;-66
2022/07/08 04:23:38;;;;;;;6.25;1.35;;;12.70;99.90;;;;;;5088963;28;20157;-66
2022/07/08 04:26:04;;;;;;;7.38;1.95;;;12.70;99.90;;;;;;5088465;28;20075;-66
2022/07/08 04:28:29;;;;;;;5.53;1.25;;;12.70;99.90;;;;;;5121073;28;20528;-67
2022/07/08 04:30:56;;;;;;;5.50;1.10;;;12.80;99.90;;;;;;5071679;28;20383;-66
2022/07/08 04:33:22;;;;;;;5.93;1.40;;;12.90;99.90;;;;;;5088734;28;20040;-66
2022/07/08 04:35:48;;;;;;;4.80;1.20;;;13.00;99.90;;;;;;5088509;28;20051;-65
2022/07/08 04:38:14;;;;;;;10.70;1.42;;;13.10;99.90;;;;;;5089472;28;20035;-66
2022/07/08 04:40:40;;;;;;;6.22;1.50;;;13.10;99.90;;;;;;5092286;28;20145;-66
2022/07/08 04:43:06;;;;;;;6.30;1.25;;;13.20;99.90;;;;;;5092571;28;20571;-66
2022/07/08 04:45:32;;;;;;;8.43;1.50;;;13.30;99.90;;;;;;5092755;28;20039;-66
2022/07/08 04:47:57;;;;;;;8.82;1.77;;;13.40;99.90;;;;;;5094481;28;20036;-66
2022/07/08 04:50:23;;;;;;;6.03;1.77;;;13.40;99.90;;;;;;5092464;28;20047;-66
2022/07/08 04:52:48;;;;;;;8.95;1.70;;;13.40;99.90;;;;;;5092062;28;20449;-66
2022/07/08 04:55:30;;;;;;;4.60;1.42;;;13.50;99.90;;;;;;5092082;28;20032;-66
2022/07/08 04:57:58;;;;;;;6.55;1.48;;;13.50;99.90;;;;;;5075343;28;20028;-66
2022/07/08 05:00:24;;;;;;;7.35;1.45;;;13.60;99.90;;;;;;5124323;27;20040;-66
2022/07/08 05:02:50;;;;;;;6.93;1.33;;;13.70;99.90;;;;;;5075322;28;20050;-66
2022/07/08 05:05:17;;;;;;;6.45;1.80;;;13.80;99.90;;;;;;5092041;28;20052;-66
2022/07/08 05:07:43;;;;;;;10.60;1.98;;;13.90;99.90;;;;;;5092044;28;20040;-66
2022/07/08 05:10:08;;;;;;;5.55;1.33;;;14.10;99.90;;;;;;5092960;28;20414;-66
2022/07/08 05:12:34;;;;;;;9.25;1.65;;;14.10;99.90;;;;;;5092922;28;20036;-66
2022/07/08 05:14:59;;;;;;;8.00;1.45;;;14.30;99.90;;;;;;5094832;28;20043;-67
2022/07/08 05:17:25;;;;;;;8.48;1.90;;;14.40;99.90;;;;;;5090837;28;20584;-66
2022/07/08 05:19:51;;;;;;;7.75;1.38;;;14.60;99.90;;;;;;5090981;28;20123;-66
2022/07/08 05:22:16;;;;;;;7.72;1.13;;;14.50;99.90;;;;;;5125426;27;20032;-66
2022/07/08 05:24:42;;;;;;;7.45;2.05;;;14.60;99.90;;;;;;5074194;28;20056;-67
2022/07/08 05:27:07;;;;;;;7.18;1.45;;;14.60;99.90;;;;;;5091677;28;20490;-67
2022/07/08 05:29:33;;;;;;;6.10;1.60;;;14.60;99.90;;;;;;5088364;28;20047;-66
2022/07/08 05:31:59;;;;;;;8.68;1.70;;;14.60;99.90;;;;;;5087400;28;20131;-66
2022/07/08 05:34:24;;;;;;;6.43;1.48;;;14.60;99.90;;;;;;5095420;28;20093;-67
2022/07/08 05:36:50;;;;;;;10.13;1.65;;;14.60;99.90;;;;;;5091457;28;20116;-67
2022/07/08 05:39:16;;;;;;;8.02;1.83;;;14.60;99.90;;;;;;5089229;28;20129;-67
2022/07/08 05:41:42;;;;;;;8.95;1.85;;;14.70;99.90;;;;;;5091136;28;20100;-67
2022/07/08 05:44:08;;;;;;;10.07;1.80;;;14.70;99.90;;;;;;5089656;28;20111;-67
2022/07/08 05:46:34;;;;;;;7.53;1.48;;;14.80;99.90;;;;;;5090762;28;20062;-66
2022/07/08 05:49:00;;;;;;;8.25;1.60;;;14.80;99.90;;;;;;5071829;28;20120;-66
2022/07/08 05:51:25;;;;;;;7.63;1.58;;;14.80;99.90;;;;;;5090074;28;20583;-67
2022/07/08 05:53:55;;;;;;;6.13;1.52;;;14.80;99.90;;;;;;5120212;27;20123;-67
2022/07/08 05:56:21;;;;;;;7.57;1.70;;;14.90;99.90;;;;;;5074060;28;20044;-66
2022/07/08 05:58:46;;;;;;;9.40;1.90;;;14.90;99.90;;;;;;5090270;28;20059;-66
2022/07/08 06:01:12;;;;;;;9.45;1.52;;;15.00;99.90;;;;;;5074182;28;20051;-66
2022/07/08 06:03:37;;;;;;;7.72;2.05;;;15.10;99.90;;;;;;5073867;28;20040;-66
2022/07/08 06:06:03;;;;;;;7.68;1.98;;;15.10;99.90;;;;;;5090835;28;20214;-66
2022/07/08 06:08:29;;;;;;;8.02;1.98;;;15.30;99.90;;;;;;5091116;28;20028;-66
2022/07/08 06:10:56;;;;;;;13.48;2.50;;;15.40;99.90;;;;;;5091240;28;20028;-67
2022/07/08 06:13:22;;;;;;;6.88;1.58;;;15.40;99.90;;;;;;5090482;28;20072;-66
2022/07/08 06:15:48;;;;;;;8.30;1.63;;;15.60;99.90;;;;;;5073829;28;20139;-66
2022/07/08 06:18:14;;;;;;;12.23;2.38;;;15.70;99.90;;;;;;5125044;27;20127;-66
2022/07/08 06:20:39;;;;;;;8.98;1.52;;;15.80;99.90;;;;;;5091002;28;20032;-67
2022/07/08 06:23:05;;;;;;;6.30;1.77;;;15.90;99.90;;;;;;5090858;28;20384;-66
2022/07/08 06:25:31;;;;;;;8.77;1.67;;;16.00;99.90;;;;;;5123104;27;20151;-66
2022/07/08 06:27:56;;;;;;;9.50;1.45;;;16.10;99.90;;;;;;5091184;28;20127;-66
2022/07/08 06:30:22;;;;;;;8.38;1.70;;;16.00;99.90;;;;;;5090432;28;20155;-66
2022/07/08 06:32:48;;;;;;;6.57;1.58;;;16.10;99.90;;;;;;5090755;28;20429;-66
2022/07/08 06:35:13;;;;;;;11.38;2.28;;;16.10;99.90;;;;;;5087362;28;20479;-67
2022/07/08 06:37:39;;;;;;;6.45;1.60;;;16.10;99.90;;;;;;5090101;28;20495;-67
2022/07/08 06:40:06;;;;;;;9.32;1.85;;;16.20;99.90;;;;;;5092646;28;20040;-67
2022/07/08 06:42:31;;;;;;;8.20;1.77;;;16.20;99.90;;;;;;5091827;28;20039;-66
2022/07/08 06:44:57;;;;;;;7.97;1.58;;;16.20;99.90;;;;;;5089031;28;20061;-66
2022/07/08 06:47:23;;;;;;;9.85;1.60;;;16.20;99.90;;;;;;5091523;28;20038;-65
2022/07/08 06:49:49;;;;;;;12.60;1.80;;;16.20;99.90;;;;;;5090081;28;20044;-64
2022/07/08 06:52:15;;;;;;;9.20;2.25;;;16.20;99.90;;;;;;5092209;28;20078;-64
2022/07/08 06:54:41;;;;;;;7.38;1.20;;;16.10;99.90;;;;;;5090124;28;20386;-66
2022/07/08 06:57:10;;;;;;;11.55;1.70;;;16.20;99.90;;;;;;5087362;28;20088;-65
2022/07/08 06:59:37;;;;;;;9.35;1.75;;;16.30;99.90;;;;;;5090167;28;20059;-63
2022/07/08 07:02:03;;;;;;;9.05;1.60;;;16.40;99.90;;;;;;5089013;28;20056;-65
2022/07/08 07:04:29;;;;;;;8.32;1.65;;;16.40;99.90;;;;;;5090732;28;20104;-64
2022/07/08 07:06:55;;;;;;;7.40;1.35;;;16.50;99.90;;;;;;5087837;28;20044;-65
2022/07/08 07:09:21;;;;;;;4.90;1.50;;;16.50;99.90;;;;;;5091268;28;20040;-65
2022/07/08 07:11:46;;;;;;;8.68;1.58;;;16.60;99.90;;;;;;5089615;28;20036;-64
2022/07/08 07:14:12;;;;;;;8.50;1.88;;;16.70;99.90;;;;;;5091211;28;20035;-64
2022/07/08 07:16:38;;;;;;;5.90;1.52;;;16.70;99.90;;;;;;5088382;28;20039;-63
2022/07/08 07:19:03;;;;;;;9.15;1.75;;;16.70;99.90;;;;;;5088362;28;20036;-65
2022/07/08 07:21:29;;;;;;;9.10;1.55;;;16.80;99.90;;;;;;5084201;28;20394;-65
2022/07/08 07:23:55;;;;;;;8.82;1.83;;;16.90;99.90;;;;;;5087669;28;20139;-65
2022/07/08 07:26:21;;;;;;;8.20;1.73;;;17.10;99.90;;;;;;5088127;28;20047;-65
2022/07/08 07:28:46;;;;;;;9.43;1.90;;;17.10;99.90;;;;;;5071030;28;20056;-64
2022/07/08 07:31:12;;;;;;;11.40;2.05;;;17.20;99.90;;;;;;5088930;28;20066;-64
2022/07/08 07:33:38;;;;;;;10.88;1.65;;;17.30;99.90;;;;;;5086760;28;20043;-64
2022/07/08 07:36:04;;;;;;;6.40;1.30;;;17.20;99.90;;;;;;5089177;28;20063;-64
2022/07/08 07:38:29;;;;;;;7.55;1.42;;;17.20;99.90;;;;;;5087787;28;20038;-66
2022/07/08 07:40:55;;;;;;;11.40;2.55;;;17.40;99.90;;;;;;5088732;28;20036;-63
2022/07/08 07:43:21;;;;;;;10.13;1.55;;;17.60;99.90;;;;;;5088646;28;20038;-65
2022/07/08 07:45:46;;;;;;;5.72;1.50;;;17.80;99.90;;;;;;5089015;28;20036;-65
2022/07/08 07:48:12;;;;;;;7.10;1.40;;;18.00;99.90;;;;;;5088652;28;20494;-65
2022/07/08 07:50:39;;;;;;;8.48;1.55;;;17.90;99.90;;;;;;5088618;28;20058;-64
2022/07/08 07:53:04;;;;;;;9.75;1.40;;;17.90;99.90;;;;;;5088489;28;20135;-64
2022/07/08 07:55:30;;;;;;;8.38;1.45;;;17.80;99.90;;;;;;5087730;28;20127;-65
2022/07/08 07:57:56;;;;;;;12.52;2.40;;;17.90;99.90;;;;;;5122520;27;20058;-65
2022/07/08 08:00:21;;;;;;;7.55;1.48;;;17.90;99.90;;;;;;5089441;28;20454;-65
2022/07/08 08:02:47;;;;;;;7.93;1.92;;;17.80;99.90;;;;;;5088901;28;20035;-64
2022/07/08 08:05:12;;;;;;;8.60;1.98;;;17.80;99.90;;;;;;5088125;28;20089;-64
2022/07/08 08:07:40;;;;;;;8.38;2.13;;;17.70;99.90;;;;;;5089192;28;20047;-65
2022/07/08 08:10:07;;;;;;;10.45;1.77;;;17.60;99.90;;;;;;5088610;28;20079;-65
2022/07/08 08:12:33;;;;;;;8.85;1.65;;;17.60;99.90;;;;;;5071888;28;20052;-65
2022/07/08 08:14:59;;;;;;;8.32;1.88;;;17.50;99.90;;;;;;5090826;28;20225;-66
2022/07/08 08:17:24;;;;;;;10.43;2.40;;;17.40;99.90;;;;;;5095715;28;20032;-65
2022/07/08 08:19:50;;;;;;;10.93;2.25;;;17.40;99.90;;;;;;5093009;28;20051;-64
2022/07/08 08:22:16;;;;;;;8.65;2.05;;;17.30;99.90;;;;;;5093314;28;20031;-64
2022/07/08 08:24:42;;;;;;;10.05;1.98;;;17.30;99.90;;;;;;5094234;28;20123;-65
2022/07/08 08:27:08;;;;;;;7.43;2.05;;;17.30;99.90;;;;;;5092529;28;20048;-64
2022/07/08 08:29:34;;;;;;;9.95;1.80;;;17.40;99.90;;;;;;5092299;28;20067;-64
2022/07/08 08:32:00;;;;;;;7.25;1.85;;;17.30;99.90;;;;;;5093005;28;20434;-64
2022/07/08 08:34:26;;;;;;;8.13;2.08;;;17.40;99.90;;;;;;5073925;28;20101;-65
2022/07/08 08:36:51;;;;;;;8.52;1.80;;;17.40;99.90;;;;;;5090217;28;20040;-64
2022/07/08 08:39:17;;;;;;;7.32;2.35;;;17.40;99.90;;;;;;5126889;27;20064;-64
2022/07/08 08:41:42;;;;;;;9.45;1.88;;;17.50;99.90;;;;;;5127854;27;20382;-65
2022/07/08 08:44:09;;;;;;;6.97;1.50;;;17.60;99.90;;;;;;5092396;28;20067;-64
2022/07/08 08:46:36;;;;;;;6.00;1.70;;;17.60;99.90;;;;;;5075185;28;20044;-65
2022/07/08 08:49:02;;;;;;;6.78;1.83;;;17.80;99.90;;;;;;5093889;28;20127;-65
2022/07/08 08:51:32;;;;;;;8.23;1.40;;;17.90;99.90;;;;;;5093042;28;20036;-65
2022/07/08 08:53:58;;;;;;;8.38;1.83;;;18.00;99.90;;;;;;5092310;28;20113;-65
2022/07/08 08:56:26;;;;;;;5.72;1.50;;;18.10;99.90;;;;;;5124264;27;20101;-65
2022/07/08 08:58:54;;;;;;;8.13;1.77;;;18.20;99.90;;;;;;5090448;28;20076;-66
2022/07/08 09:01:20;;;;;;;10.15;2.13;;;18.30;99.90;;;;;;5092330;28;20079;-65
2022/07/08 09:03:46;;;;;;;6.65;1.88;;;18.40;99.90;;;;;;5091444;28;20040;-65
2022/07/08 09:06:12;;;;;;;9.63;1.90;;;18.40;99.90;;;;;;5122658;27;20513;-65
2022/07/08 09:08:38;;;;;;;8.43;1.90;;;18.50;99.90;;;;;;5091438;28;20471;-65
2022/07/08 09:11:05;;;;;;;7.68;1.70;;;18.60;99.90;;;;;;5091549;28;20058;-64
2022/07/08 09:13:31;;;;;;;6.60;1.77;;;18.80;99.90;;;;;;5092984;28;20085;-65
2022/07/08 09:15:58;;;;;;;7.10;1.83;;;18.80;99.90;;;;;;5092132;28;20044;-64
2022/07/08 09:18:28;;;;;;;7.82;2.00;;;18.80;99.90;;;;;;5092012;28;20044;-64
2022/07/08 09:20:56;;;;;;;4.97;1.50;;;18.90;99.90;;;;;;5088740;28;20093;-65
2022/07/08 09:23:24;;;;;;;5.97;1.50;;;19.00;99.90;;;;;;5092457;28;20482;-65
2022/07/08 09:25:51;;;;;;;9.68;1.65;;;19.00;99.90;;;;;;5088396;28;20036;-65
2022/07/08 09:28:29;;;;;;;4.88;1.40;;;19.00;99.90;;;;;;5091392;28;20043;-63
2022/07/08 09:30:56;;;;;;;6.13;1.67;;;19.00;99.90;;;;;;5090126;28;20047;-64
2022/07/08 09:33:23;;;;;;;6.95;1.42;;;19.00;99.90;;;;;;5083877;28;20041;-66
2022/07/08 09:35:52;;;;;;;8.38;1.65;;;19.00;99.90;;;;;;5088574;28;20114;-64
2022/07/08 09:38:19;;;;;;;7.43;1.23;;;19.00;99.90;;;;;;5091457;28;20545;-64
2022/07/08 09:40:55;;;;;;;6.13;1.55;;;19.00;99.90;;;;;;5120229;27;20032;-65
2022/07/08 09:43:21;;;;;;;6.13;1.23;;;19.00;99.90;;;;;;5089005;28;20410;-64
2022/07/08 09:45:47;;;;;;;5.57;1.40;;;19.00;99.90;;;;;;5091743;28;20484;-64
2022/07/08 09:48:13;;;;;;;6.82;1.85;;;19.10;99.90;;;;;;5092573;28;20046;-65
2022/07/08 09:50:44;;;;;;;6.22;1.40;;;19.30;99.90;;;;;;5092648;28;20032;-64
2022/07/08 09:53:13;;;;;;;4.97;1.50;;;19.30;99.90;;;;;;5092003;28;20076;-64
2022/07/08 09:55:40;;;;;;;8.35;1.25;;;19.50;99.90;;;;;;5091422;28;20469;-62
2022/07/08 09:58:07;;;;;;;5.32;1.17;;;19.50;99.90;;;;;;5091499;28;20036;-63
2022/07/08 10:00:33;;;;;;;7.38;1.52;;;19.50;99.90;;;;;;5090752;28;20040;-63
2022/07/08 10:03:02;;;;;;;3.58;1.42;;;19.50;99.90;;;;;;5092241;28;20028;-64
2022/07/08 10:05:28;;;;;;;5.95;1.42;;;19.60;99.90;;;;;;5084947;28;20063;-63
2022/07/08 10:07:54;;;;;;;6.55;1.85;;;19.70;99.90;;;;;;5124373;27;20078;-64
2022/07/08 10:10:20;;;;;;;3.83;1.15;;;19.80;99.90;;;;;;5090747;28;20075;-65
2022/07/08 10:12:47;;;;;;;4.03;1.40;;;19.80;99.90;;;;;;5090662;28;20066;-64
2022/07/08 10:15:14;;;;;;;7.07;1.70;;;19.80;99.90;;;;;;5090408;28;20036;-65
2022/07/08 10:17:43;;;;;;;4.13;1.50;;;20.00;99.90;;;;;;5089488;28;20032;-63
2022/07/08 10:20:11;;;;;;;7.18;1.92;;;19.90;99.90;;;;;;5090899;28;20558;-63
2022/07/08 10:22:39;;;;;;;7.07;1.60;;;20.00;99.90;;;;;;5087461;28;20487;-63
2022/07/08 10:25:05;;;;;;;8.02;1.75;;;19.90;99.90;;;;;;5087712;28;20339;-63
2022/07/08 10:27:31;;;;;;;5.00;1.77;;;19.90;99.90;;;;;;5086539;28;20462;-63
2022/07/08 10:30:13;;;;;;;8.00;1.70;;;19.90;99.90;;;;;;5091343;28;20056;-64
2022/07/08 10:32:39;;;;;;;4.57;1.40;;;19.80;99.90;;;;;;5082007;28;20048;-63
2022/07/08 10:35:12;;;;;;;5.00;1.40;;;19.80;99.90;;;;;;5089579;28;20517;-64
2022/07/08 10:37:50;;;;;;;4.75;1.67;;;19.70;99.90;;;;;;5084538;28;20399;-64
2022/07/08 10:40:37;;;;;;;5.63;1.73;;;19.70;99.90;;;;;;5089777;28;20125;-63
2022/07/08 10:43:25;;;;;;;5.13;2.03;;;19.60;99.90;;;;;;5088512;28;20392;-64
2022/07/08 10:46:15;;;;;;;7.35;1.73;;;19.50;99.90;;;;;;5072048;28;20040;-62
2022/07/08 10:48:40;;;;;;;4.70;1.50;;;19.50;99.90;;;;;;5029924;28;20144;-64
2022/07/08 10:51:26;;;;;;;6.80;1.65;;;19.50;99.90;;;;;;5012624;28;20500;-64
2022/07/08 10:53:59;;;;;;;4.28;1.33;;;19.50;99.90;;;;;;5019082;28;20068;-63
2022/07/08 10:56:47;;;;;;;5.32;1.63;;;19.50;99.90;;;;;;5013226;28;20477;-64
2022/07/08 10:59:29;;;;;;;5.70;1.50;;;19.50;99.90;;;;;;5009758;28;20045;-64
2022/07/08 11:02:12;;;;;;;5.57;2.00;;;19.40;99.90;;;;;;5011917;28;20037;-63
2022/07/08 11:04:37;;;;;;;4.68;1.70;;;19.50;99.90;;;;;;5012145;28;20088;-64
2022/07/08 11:07:22;;;;;;;5.93;1.55;;;19.70;99.90;;;;;;5013426;28;20057;-64
2022/07/08 11:10:11;;;;;;;7.95;2.10;;;19.80;99.90;;;;;;4995401;28;20128;-64
2022/07/08 11:12:39;;;;;;;4.35;1.52;;;19.90;99.90;;;;;;5026779;28;20597;-64
2022/07/08 11:15:16;;;;;;;5.22;1.60;;;20.10;99.90;;;;;;5012079;28;20083;-64
2022/07/08 11:17:43;;;;;;;5.47;1.63;;;20.20;99.90;;;;;;5012614;28;20503;-63
2022/07/08 11:20:14;;;;;;;4.70;1.90;;;20.30;99.90;;;;;;5012123;28;20187;-65
2022/07/08 11:22:42;;;;;;;6.15;1.80;;;20.40;99.90;;;;;;5013821;28;20053;-64
2022/07/08 11:25:10;;;;;;;6.18;1.75;;;20.30;99.90;;;;;;5030998;28;20060;-64
2022/07/08 11:27:36;;;;;;;4.38;1.55;;;20.30;99.90;;;;;;5114300;27;20047;-64
2022/07/08 11:30:08;;;;;;;4.28;1.52;;;20.30;99.90;;;;;;5089276;28;20095;-64
2022/07/08 11:32:34;;;;;;;6.38;1.60;;;20.40;99.90;;;;;;5084221;28;20079;-64
2022/07/08 11:35:00;;;;;;;5.90;1.70;;;20.50;99.90;;;;;;5090725;28;20079;-63
2022/07/08 11:37:25;;;;;;;6.07;1.90;;;20.50;99.90;;;;;;5089843;28;20051;-64
2022/07/08 11:39:51;;;;;;;4.72;1.40;;;20.40;99.90;;;;;;5088165;28;20047;-64
2022/07/08 11:42:17;;;;;;;4.28;1.45;;;20.30;99.90;;;;;;5092069;28;20096;-64
2022/07/08 11:44:44;;;;;;;7.25;1.73;;;20.30;99.90;;;;;;5090283;28;20051;-63
2022/07/08 11:47:13;;;;;;;8.23;1.60;;;20.30;99.90;;;;;;5090724;28;20107;-63
2022/07/08 11:49:42;;;;;;;8.95;2.38;;;20.40;99.90;;;;;;5090923;28;20043;-64
2022/07/08 11:52:08;;;;;;;5.97;1.90;;;20.40;99.90;;;;;;5089084;28;20055;-64
2022/07/08 11:54:34;;;;;;;4.32;1.25;;;20.60;99.90;;;;;;5089041;28;20043;-64
2022/07/08 11:57:01;;;;;;;6.07;1.77;;;20.90;99.90;;;;;;5089042;28;20407;-62
2022/07/08 11:59:29;;;;;;;8.27;1.92;;;21.00;99.90;;;;;;5084319;28;20040;-64
2022/07/08 12:01:56;;;;;;;4.05;1.20;;;21.00;99.90;;;;;;5090461;28;20044;-64
2022/07/08 12:04:23;;;;;;;5.20;1.50;;;21.00;99.90;;;;;;5090353;28;20482;-64
2022/07/08 12:06:56;;;;;;;4.35;1.42;;;21.10;99.90;;;;;;5089765;28;20036;-62
2022/07/08 12:09:23;;;;;;;6.10;1.50;;;21.10;99.90;;;;;;5090402;28;20032;-63
2022/07/08 12:11:51;;;;;;;4.05;1.58;;;21.10;99.90;;;;;;5123116;28;20052;-64
2022/07/08 12:14:18;;;;;;;3.65;1.10;;;21.20;99.90;;;;;;5089036;28;20047;-63
2022/07/08 12:16:53;;;;;;;4.22;1.67;;;21.20;99.90;;;;;;5086165;28;20125;-64
2022/07/08 12:19:27;;;;;;;7.07;1.60;;;21.20;99.90;;;;;;5089744;28;20028;-63
2022/07/08 12:21:54;;;;;;;5.22;1.45;;;21.30;99.90;;;;;;5090032;28;20497;-64
2022/07/08 12:24:28;;;;;;;3.88;1.20;;;21.30;99.90;;;;;;5090288;28;20040;-64
2022/07/08 12:27:02;;;;;;;6.68;1.60;;;21.40;99.90;;;;;;5088740;28;20051;-62
2022/07/08 12:29:31;;;;;;;4.68;1.45;;;21.40;99.90;;;;;;5089894;28;20177;-64
2022/07/08 12:31:57;;;;;;;3.97;1.30;;;21.40;99.90;;;;;;5088896;28;20148;-63
2022/07/08 12:34:24;;;;;;;4.85;1.95;;;21.40;99.90;;;;;;5090411;28;20142;-63
2022/07/08 12:36:51;;;;;;;3.85;1.45;;;21.40;99.90;;;;;;5090262;28;20032;-63
2022/07/08 12:39:19;;;;;;;7.30;1.42;;;21.60;99.90;;;;;;5090198;28;20043;-64
2022/07/08 12:42:06;;;;;;;5.22;1.40;;;21.80;99.90;;;;;;5123151;28;20046;-64
2022/07/08 12:44:39;;;;;;;5.13;1.58;;;22.10;99.90;;;;;;5090044;28;20047;-64